Time;durP1;ratioP1;P1;durP2;ratioP2;P2;SDS_P1;SDS_P2;PMS_P1;PMS_P2;Temp;Humidity;BMP_temperature;BMP_pressure;BME280_temperature;BME280_humidity;BME280_pressure;Samples;Min_cycle;Max_cycle;Signal;HPM_P1;HPM_P2
2023/03/25 00:02:23;;;;;;;4.70;2.10;;;;;;;;;;4994126;28;20403;-75
2023/03/25 00:04:50;;;;;;;5.97;2.70;;;;;;;;;;5002998;28;20057;-76
2023/03/25 00:07:17;;;;;;;4.82;2.30;;;;;;;;;;5002738;28;20022;-75
2023/03/25 00:09:44;;;;;;;6.93;2.75;;;;;;;;;;5008430;28;20022;-75
2023/03/25 00:12:10;;;;;;;4.25;2.28;;;;;;;;;;5010951;28;20029;-75
2023/03/25 00:14:36;;;;;;;7.72;2.17;;;;;;;;;;5010746;28;20103;-74
2023/03/25 00:17:02;;;;;;;4.32;1.88;;;;;;;;;;5007720;28;20026;-73
2023/03/25 00:19:28;;;;;;;8.73;2.55;;;;;;;;;;4998147;28;20026;-74
2023/03/25 00:21:55;;;;;;;4.78;2.22;;;;;;;;;;5000152;28;20101;-73
2023/03/25 00:24:21;;;;;;;4.75;2.00;;;;;;;;;;4996071;28;20064;-73
2023/03/25 00:26:47;;;;;;;10.10;3.38;;;;;;;;;;5002649;28;20030;-73
2023/03/25 00:29:14;;;;;;;9.43;2.33;;;;;;;;;;5004404;28;20022;-74
2023/03/25 00:31:41;;;;;;;6.55;1.77;;;;;;;;;;5002006;28;20054;-73
2023/03/25 00:34:07;;;;;;;10.10;1.80;;;;;;;;;;4999446;28;20023;-75
2023/03/25 00:36:36;;;;;;;6.80;2.25;;;;;;;;;;4998514;28;20029;-75
2023/03/25 00:39:03;;;;;;;5.03;2.15;;;;;;;;;;5003128;28;20021;-75
2023/03/25 00:41:29;;;;;;;5.82;2.40;;;;;;;;;;5002055;28;20030;-75
2023/03/25 00:43:56;;;;;;;6.28;2.90;;;;;;;;;;4992410;28;20026;-75
2023/03/25 00:46:25;;;;;;;8.50;2.70;;;;;;;;;;5010091;28;20026;-75
2023/03/25 00:48:51;;;;;;;7.65;2.47;;;;;;;;;;5002796;28;20064;-75
2023/03/25 00:51:20;;;;;;;6.70;3.08;;;;;;;;;;4998105;28;20499;-76
2023/03/25 00:53:47;;;;;;;7.60;1.70;;;;;;;;;;5006174;28;20026;-75
2023/03/25 00:56:14;;;;;;;12.65;2.33;;;;;;;;;;4994002;28;20022;-76
2023/03/25 00:58:40;;;;;;;3.30;1.63;;;;;;;;;;5008819;28;20026;-75
2023/03/25 01:01:22;;;;;;;5.60;2.10;;;;;;;;;;5009488;28;20437;-76
2023/03/25 01:03:48;;;;;;;6.93;3.72;;;;;;;;;;4995540;28;20121;-76
2023/03/25 01:06:15;;;;;;;8.18;2.92;;;;;;;;;;4977993;28;20030;-76
2023/03/25 01:08:42;;;;;;;5.55;2.35;;;;;;;;;;5004325;28;20086;-74
2023/03/25 01:11:22;;;;;;;9.60;4.28;;;;;;;;;;5009652;28;20105;-76
2023/03/25 01:13:50;;;;;;;7.10;2.55;;;;;;;;;;5009729;28;20030;-76
2023/03/25 01:16:16;;;;;;;8.63;2.25;;;;;;;;;;5009732;28;20565;-76
2023/03/25 01:18:42;;;;;;;5.05;2.20;;;;;;;;;;5001603;28;20037;-76
2023/03/25 01:21:08;;;;;;;6.97;2.67;;;;;;;;;;4992162;28;20110;-76
2023/03/25 01:23:34;;;;;;;5.80;1.90;;;;;;;;;;4989563;28;20106;-77
2023/03/25 01:26:00;;;;;;;9.45;2.30;;;;;;;;;;5005690;28;20398;-76
2023/03/25 01:28:27;;;;;;;9.38;2.22;;;;;;;;;;4993119;28;20026;-74
2023/03/25 01:31:00;;;;;;;11.48;2.92;;;;;;;;;;5008879;28;20065;-74
2023/03/25 01:33:26;;;;;;;7.18;3.30;;;;;;;;;;5001945;28;20086;-74
2023/03/25 01:35:52;;;;;;;5.95;1.95;;;;;;;;;;4993234;28;20523;-75
2023/03/25 01:38:18;;;;;;;7.38;2.53;;;;;;;;;;5007666;28;20022;-73
2023/03/25 01:40:49;;;;;;;7.82;2.33;;;;;;;;;;4983537;28;20072;-74
2023/03/25 01:43:17;;;;;;;8.73;2.72;;;;;;;;;;5009174;28;20036;-74
2023/03/25 01:45:44;;;;;;;7.13;2.80;;;;;;;;;;4994821;28;20027;-74
2023/03/25 01:48:36;;;;;;;6.60;2.55;;;;;;;;;;5001122;28;20410;-74
2023/03/25 01:51:06;;;;;;;7.85;2.75;;;;;;;;;;4983339;28;20053;-74
2023/03/25 01:53:32;;;;;;;7.73;4.10;;;;;;;;;;4992017;28;20047;-74
2023/03/25 01:56:01;;;;;;;3.05;1.85;;;;;;;;;;5009516;28;20758;-74
2023/03/25 01:58:29;;;;;;;10.60;2.75;;;;;;;;;;5014796;28;20041;-74
2023/03/25 02:00:56;;;;;;;6.45;2.25;;;;;;;;;;5017354;28;20037;-75
2023/03/25 02:03:23;;;;;;;16.65;7.80;;;;;;;;;;5001552;28;20030;-76
2023/03/25 02:05:49;;;;;;;8.07;4.22;;;;;;;;;;4997083;28;20038;-76
2023/03/25 02:08:15;;;;;;;9.50;2.70;;;;;;;;;;4988924;28;20065;-75
2023/03/25 02:10:44;;;;;;;5.50;2.15;;;;;;;;;;4989679;28;20100;-74
2023/03/25 02:13:10;;;;;;;5.38;2.03;;;;;;;;;;4989338;28;20022;-75
2023/03/25 02:16:03;;;;;;;9.80;2.53;;;;;;;;;;4989107;28;20121;-75
2023/03/25 02:18:47;;;;;;;8.63;2.55;;;;;;;;;;4988545;28;20388;-75
2023/03/25 02:21:32;;;;;;;6.22;2.25;;;;;;;;;;4989172;28;20175;-76
2023/03/25 02:24:16;;;;;;;7.55;1.92;;;;;;;;;;4989060;28;20391;-75
2023/03/25 02:26:42;;;;;;;7.63;1.58;;;;;;;;;;4989497;28;20441;-75
2023/03/25 02:29:13;;;;;;;2.63;1.67;;;;;;;;;;4988266;28;20035;-76
2023/03/25 02:31:47;;;;;;;7.70;2.50;;;;;;;;;;4990797;28;20113;-74
2023/03/25 02:34:16;;;;;;;3.83;1.73;;;;;;;;;;4996772;28;20014;-75
2023/03/25 02:37:09;;;;;;;6.03;1.70;;;;;;;;;;4995960;28;20099;-74
2023/03/25 02:39:38;;;;;;;4.05;1.50;;;;;;;;;;4998266;28;20053;-74
2023/03/25 02:42:08;;;;;;;4.80;1.48;;;;;;;;;;5000661;28;20054;-75
2023/03/25 02:44:40;;;;;;;5.28;2.10;;;;;;;;;;5008234;28;20105;-75
2023/03/25 02:47:08;;;;;;;6.35;2.25;;;;;;;;;;5008147;28;20441;-74
2023/03/25 02:49:39;;;;;;;5.82;1.92;;;;;;;;;;5008821;28;20033;-72
2023/03/25 02:52:15;;;;;;;4.60;1.77;;;;;;;;;;5008626;28;20018;-74
2023/03/25 02:54:43;;;;;;;7.90;2.65;;;;;;;;;;5008469;28;20046;-75
2023/03/25 02:57:12;;;;;;;5.13;2.30;;;;;;;;;;5007697;28;20029;-75
2023/03/25 02:59:38;;;;;;;4.65;1.80;;;;;;;;;;5011521;28;20108;-75
2023/03/25 03:02:07;;;;;;;6.90;2.20;;;;;;;;;;4994399;28;20395;-74
2023/03/25 03:04:45;;;;;;;7.35;2.00;;;;;;;;;;5012913;28;20030;-74
2023/03/25 03:07:11;;;;;;;3.92;2.00;;;;;;;;;;5011446;28;20036;-74
2023/03/25 03:09:46;;;;;;;5.63;2.20;;;;;;;;;;5011846;28;20022;-74
2023/03/25 03:12:21;;;;;;;6.03;2.20;;;;;;;;;;4993819;28;20030;-74
2023/03/25 03:14:50;;;;;;;7.95;2.35;;;;;;;;;;5011892;28;20025;-74
2023/03/25 03:17:26;;;;;;;6.35;2.20;;;;;;;;;;5010930;28;20103;-73
2023/03/25 03:19:57;;;;;;;6.13;1.90;;;;;;;;;;5011380;28;20041;-74
2023/03/25 03:22:36;;;;;;;5.82;2.10;;;;;;;;;;4993563;28;20071;-75
2023/03/25 03:25:21;;;;;;;7.28;2.63;;;;;;;;;;5011203;28;20030;-75
2023/03/25 03:27:51;;;;;;;5.57;1.70;;;;;;;;;;5010716;28;20033;-74
2023/03/25 03:30:41;;;;;;;6.75;1.73;;;;;;;;;;5011216;28;20067;-75
2023/03/25 03:33:20;;;;;;;5.65;2.08;;;;;;;;;;5015569;28;20041;-75
2023/03/25 03:36:00;;;;;;;3.65;1.50;;;;;;;;;;5011364;28;20060;-75
2023/03/25 03:38:28;;;;;;;6.75;1.80;;;;;;;;;;5010504;28;20429;-75
2023/03/25 03:40:56;;;;;;;6.13;1.50;;;;;;;;;;5011100;28;20037;-75
2023/03/25 03:43:28;;;;;;;4.45;1.40;;;;;;;;;;5010693;28;20057;-76
2023/03/25 03:45:56;;;;;;;4.85;1.38;;;;;;;;;;5011102;28;20022;-75
2023/03/25 03:48:25;;;;;;;3.17;1.35;;;;;;;;;;5010302;28;20025;-75
2023/03/25 03:51:12;;;;;;;3.10;1.30;;;;;;;;;;5010724;28;20034;-75
2023/03/25 03:53:40;;;;;;;1.83;1.02;;;;;;;;;;5011337;28;20030;-75
2023/03/25 03:56:12;;;;;;;6.75;1.70;;;;;;;;;;5010935;28;20033;-73
2023/03/25 03:58:42;;;;;;;4.65;1.55;;;;;;;;;;5010118;28;20113;-75
2023/03/25 04:01:14;;;;;;;5.43;1.75;;;;;;;;;;5010784;28;20102;-75
2023/03/25 04:03:52;;;;;;;4.90;1.23;;;;;;;;;;5010899;28;20050;-75
2023/03/25 04:06:19;;;;;;;5.78;1.60;;;;;;;;;;5010503;28;20026;-74
2023/03/25 04:08:57;;;;;;;3.05;1.17;;;;;;;;;;5009719;28;20095;-75
2023/03/25 04:11:26;;;;;;;3.78;0.85;;;;;;;;;;5010021;28;20506;-75
2023/03/25 04:13:53;;;;;;;5.13;1.73;;;;;;;;;;5010650;28;20035;-75
2023/03/25 04:16:19;;;;;;;1.98;0.82;;;;;;;;;;5010498;28;20560;-74
2023/03/25 04:18:46;;;;;;;2.45;0.82;;;;;;;;;;5009429;28;20033;-74
2023/03/25 04:21:14;;;;;;;6.05;1.20;;;;;;;;;;5010237;28;20030;-75
2023/03/25 04:23:40;;;;;;;1.85;0.80;;;;;;;;;;4992994;28;20026;-75
2023/03/25 04:26:06;;;;;;;1.83;0.80;;;;;;;;;;5010290;28;20073;-75
2023/03/25 04:28:32;;;;;;;3.08;1.17;;;;;;;;;;5009719;28;20604;-75
2023/03/25 04:30:59;;;;;;;2.03;0.65;;;;;;;;;;5010269;28;20058;-75
2023/03/25 04:33:28;;;;;;;2.53;1.38;;;;;;;;;;5010095;28;20087;-74
2023/03/25 04:35:54;;;;;;;3.53;0.80;;;;;;;;;;5010103;28;20424;-74
2023/03/25 04:38:21;;;;;;;3.17;0.93;;;;;;;;;;5009507;28;20022;-75
2023/03/25 04:40:47;;;;;;;4.40;1.48;;;;;;;;;;5010194;28;20033;-75
2023/03/25 04:43:16;;;;;;;2.85;1.00;;;;;;;;;;5010027;28;20094;-75
2023/03/25 04:45:47;;;;;;;4.05;1.27;;;;;;;;;;5010008;28;20026;-75
2023/03/25 04:48:33;;;;;;;3.00;0.98;;;;;;;;;;5009481;28;20022;-75
2023/03/25 04:51:02;;;;;;;3.15;1.02;;;;;;;;;;5009953;28;20034;-75
2023/03/25 04:53:29;;;;;;;2.88;0.75;;;;;;;;;;5010280;28;20049;-76
2023/03/25 04:55:55;;;;;;;1.27;0.57;;;;;;;;;;4992520;28;20030;-75
2023/03/25 04:58:21;;;;;;;1.33;0.93;;;;;;;;;;5008933;28;20026;-74
2023/03/25 05:00:49;;;;;;;3.78;1.05;;;;;;;;;;5009479;28;20075;-75
2023/03/25 05:03:16;;;;;;;5.47;0.82;;;;;;;;;;5009962;28;20058;-75
2023/03/25 05:05:42;;;;;;;2.35;0.88;;;;;;;;;;5009981;28;20033;-75
2023/03/25 05:08:10;;;;;;;3.50;0.80;;;;;;;;;;5009822;28;20026;-74
2023/03/25 05:10:37;;;;;;;2.15;0.82;;;;;;;;;;5009656;28;20026;-75
2023/03/25 05:13:05;;;;;;;1.75;0.88;;;;;;;;;;5009460;28;20576;-74
2023/03/25 05:15:38;;;;;;;3.50;0.80;;;;;;;;;;5009636;28;20037;-75
2023/03/25 05:18:05;;;;;;;4.00;0.60;;;;;;;;;;5009043;28;20403;-75
2023/03/25 05:20:33;;;;;;;3.47;1.23;;;;;;;;;;5009300;28;20041;-74
2023/03/25 05:23:00;;;;;;;3.25;0.68;;;;;;;;;;5009332;28;20041;-74
2023/03/25 05:25:27;;;;;;;2.05;0.80;;;;;;;;;;4989337;28;20026;-75
2023/03/25 05:27:53;;;;;;;3.25;1.38;;;;;;;;;;4990553;28;20049;-75
2023/03/25 05:30:21;;;;;;;2.83;0.82;;;;;;;;;;4997538;28;20099;-74
2023/03/25 05:32:49;;;;;;;1.92;0.70;;;;;;;;;;4998980;28;20535;-74
2023/03/25 05:35:15;;;;;;;2.63;0.93;;;;;;;;;;5004486;28;20034;-75
2023/03/25 05:37:42;;;;;;;4.53;0.95;;;;;;;;;;5008534;28;20036;-76
2023/03/25 05:40:09;;;;;;;1.23;0.57;;;;;;;;;;5009057;28;20037;-75
2023/03/25 05:42:36;;;;;;;1.40;0.57;;;;;;;;;;5009270;28;20108;-73
2023/03/25 05:45:02;;;;;;;2.65;1.00;;;;;;;;;;5000723;28;20025;-76
2023/03/25 05:47:29;;;;;;;1.30;1.05;;;;;;;;;;4994129;28;20527;-75
2023/03/25 05:49:59;;;;;;;0.80;0.30;;;;;;;;;;5008923;28;20026;-77
2023/03/25 05:52:26;;;;;;;1.88;0.88;;;;;;;;;;5000608;28;20038;-74
2023/03/25 05:54:52;;;;;;;2.50;0.60;;;;;;;;;;5009045;28;20026;-74
2023/03/25 05:57:18;;;;;;;1.65;0.55;;;;;;;;;;5008272;28;20483;-74
2023/03/25 05:59:44;;;;;;;1.30;0.40;;;;;;;;;;4995423;28;20034;-74
2023/03/25 06:02:14;;;;;;;1.23;0.73;;;;;;;;;;5001748;28;20034;-74
2023/03/25 06:04:41;;;;;;;3.65;1.15;;;;;;;;;;5001433;28;20044;-73
2023/03/25 06:07:12;;;;;;;1.75;0.95;;;;;;;;;;4995325;28;20025;-72
2023/03/25 06:09:45;;;;;;;2.63;1.50;;;;;;;;;;5009589;28;20037;-74
2023/03/25 06:12:14;;;;;;;2.75;1.00;;;;;;;;;;5008893;28;20592;-75
2023/03/25 06:14:44;;;;;;;3.25;0.70;;;;;;;;;;5008841;28;20022;-74
2023/03/25 06:17:11;;;;;;;3.05;1.00;;;;;;;;;;5008114;28;20034;-74
2023/03/25 06:19:38;;;;;;;1.50;0.63;;;;;;;;;;5008851;28;20030;-75
2023/03/25 06:22:05;;;;;;;0.73;0.32;;;;;;;;;;5008588;28;20021;-74
2023/03/25 06:24:31;;;;;;;2.63;1.08;;;;;;;;;;5008764;28;20037;-75
2023/03/25 06:26:57;;;;;;;2.95;1.05;;;;;;;;;;5008674;28;20029;-73
2023/03/25 06:29:23;;;;;;;5.82;1.35;;;;;;;;;;4990494;28;20024;-74
2023/03/25 06:31:49;;;;;;;1.05;0.50;;;;;;;;;;4987336;28;20056;-74
2023/03/25 06:34:15;;;;;;;4.35;0.85;;;;;;;;;;5000931;28;20018;-72
2023/03/25 06:36:41;;;;;;;4.53;1.00;;;;;;;;;;4996917;28;20034;-75
2023/03/25 06:39:07;;;;;;;1.75;0.80;;;;;;;;;;4994681;28;20028;-76
2023/03/25 06:41:36;;;;;;;1.63;0.80;;;;;;;;;;5008690;28;20373;-76
2023/03/25 06:44:04;;;;;;;3.15;0.70;;;;;;;;;;5007878;28;20026;-75
2023/03/25 06:46:30;;;;;;;2.95;0.98;;;;;;;;;;5008286;28;20014;-75
2023/03/25 06:48:56;;;;;;;2.30;0.90;;;;;;;;;;4983992;28;21103;-75
2023/03/25 06:51:22;;;;;;;3.70;2.45;;;;;;;;;;4994287;28;20452;-75
2023/03/25 06:53:48;;;;;;;8.98;4.47;;;;;;;;;;4971359;28;20121;-75
2023/03/25 06:56:15;;;;;;;6.60;1.98;;;;;;;;;;4989630;28;20400;-76
2023/03/25 06:58:41;;;;;;;1.77;0.80;;;;;;;;;;4973635;28;20062;-76
2023/03/25 07:01:07;;;;;;;5.60;1.98;;;;;;;;;;4989572;28;20031;-75
2023/03/25 07:03:35;;;;;;;2.28;0.93;;;;;;;;;;4972605;28;20408;-74
2023/03/25 07:06:01;;;;;;;5.95;0.80;;;;;;;;;;5005860;28;20018;-75
2023/03/25 07:08:27;;;;;;;2.63;0.80;;;;;;;;;;5007415;28;20018;-77
2023/03/25 07:10:53;;;;;;;1.90;0.95;;;;;;;;;;5006622;28;20026;-75
2023/03/25 07:13:19;;;;;;;2.85;0.80;;;;;;;;;;5003292;28;20548;-74
2023/03/25 07:15:45;;;;;;;3.45;0.88;;;;;;;;;;4989363;28;20038;-74
2023/03/25 07:18:11;;;;;;;2.92;0.85;;;;;;;;;;4984843;28;20042;-75
2023/03/25 07:20:37;;;;;;;4.70;0.95;;;;;;;;;;4983879;28;20033;-75
2023/03/25 07:23:03;;;;;;;4.45;1.55;;;;;;;;;;5001289;28;20034;-76
2023/03/25 07:25:29;;;;;;;4.28;0.80;;;;;;;;;;4981560;28;20105;-75
2023/03/25 07:27:55;;;;;;;4.47;1.40;;;;;;;;;;4987960;28;20437;-76
2023/03/25 07:30:21;;;;;;;3.80;1.10;;;;;;;;;;4988343;28;20121;-75
2023/03/25 07:32:47;;;;;;;3.53;0.90;;;;;;;;;;4984753;28;20022;-76
2023/03/25 07:35:13;;;;;;;2.83;0.63;;;;;;;;;;5007807;28;20033;-75
2023/03/25 07:37:39;;;;;;;2.85;0.60;;;;;;;;;;5007202;28;20109;-76
2023/03/25 07:40:06;;;;;;;2.50;0.80;;;;;;;;;;5007227;28;20030;-74
2023/03/25 07:42:32;;;;;;;2.20;0.80;;;;;;;;;;5007513;28;20102;-74
2023/03/25 07:44:58;;;;;;;3.67;0.80;;;;;;;;;;5009907;28;20418;-76
2023/03/25 07:47:24;;;;;;;4.45;1.20;;;;;;;;;;5010940;28;20033;-77
2023/03/25 07:49:50;;;;;;;5.28;1.42;;;;;;;;;;5011217;28;20026;-74
2023/03/25 07:52:16;;;;;;;3.10;0.70;;;;;;;;;;5010876;28;20026;-74
2023/03/25 07:54:42;;;;;;;4.43;0.90;;;;;;;;;;4993149;28;20041;-74
2023/03/25 07:57:08;;;;;;;3.35;0.88;;;;;;;;;;5009499;28;20034;-75
2023/03/25 07:59:34;;;;;;;2.58;0.95;;;;;;;;;;5010673;28;20101;-73
2023/03/25 08:02:00;;;;;;;2.05;0.60;;;;;;;;;;5011021;28;20029;-74
2023/03/25 08:04:26;;;;;;;3.75;0.90;;;;;;;;;;5010944;28;20034;-73
2023/03/25 08:06:52;;;;;;;5.38;1.10;;;;;;;;;;4992749;28;20444;-74
2023/03/25 08:09:18;;;;;;;2.53;0.68;;;;;;;;;;5008689;28;20495;-74
2023/03/25 08:11:44;;;;;;;1.77;0.80;;;;;;;;;;5009630;28;20037;-75
2023/03/25 08:14:11;;;;;;;2.85;0.80;;;;;;;;;;4995428;28;20501;-74
2023/03/25 08:16:37;;;;;;;2.85;0.80;;;;;;;;;;4972411;28;20042;-75
2023/03/25 08:19:03;;;;;;;8.45;1.35;;;;;;;;;;4970687;28;20087;-75
2023/03/25 08:21:29;;;;;;;4.47;1.00;;;;;;;;;;4989189;28;20400;-75
2023/03/25 08:24:01;;;;;;;2.42;0.75;;;;;;;;;;4989271;28;20057;-75
2023/03/25 08:26:27;;;;;;;2.03;0.65;;;;;;;;;;4972564;28;20026;-75
2023/03/25 08:28:56;;;;;;;4.20;0.85;;;;;;;;;;4972017;28;20160;-75
2023/03/25 08:31:22;;;;;;;1.65;0.55;;;;;;;;;;4992239;28;20069;-75
2023/03/25 08:33:48;;;;;;;6.60;2.90;;;;;;;;;;5010784;28;20026;-75
2023/03/25 08:36:18;;;;;;;1.55;0.57;;;;;;;;;;5010439;28;20437;-75
2023/03/25 08:38:44;;;;;;;3.38;1.08;;;;;;;;;;5009337;28;20117;-74
2023/03/25 08:41:10;;;;;;;2.83;0.80;;;;;;;;;;5010112;28;20034;-76
2023/03/25 08:43:36;;;;;;;4.32;1.10;;;;;;;;;;5010150;28;20030;-75
2023/03/25 08:46:02;;;;;;;3.20;1.40;;;;;;;;;;4992356;28;20395;-74
2023/03/25 08:48:29;;;;;;;3.65;0.85;;;;;;;;;;5009094;28;20022;-74
2023/03/25 08:50:55;;;;;;;1.27;0.70;;;;;;;;;;5009933;28;20483;-75
2023/03/25 08:53:21;;;;;;;1.73;0.90;;;;;;;;;;5009831;28;20037;-74
2023/03/25 08:55:49;;;;;;;2.45;1.00;;;;;;;;;;5009494;28;20018;-74
2023/03/25 08:58:15;;;;;;;3.13;0.77;;;;;;;;;;5009064;28;20025;-74
2023/03/25 09:00:41;;;;;;;4.55;1.05;;;;;;;;;;5010337;28;20041;-73
2023/03/25 09:03:07;;;;;;;2.92;0.65;;;;;;;;;;5010261;28;20026;-75
2023/03/25 09:05:36;;;;;;;0.90;0.70;;;;;;;;;;5009609;28;20501;-73
2023/03/25 09:08:02;;;;;;;2.47;0.80;;;;;;;;;;5008778;28;20022;-74
2023/03/25 09:10:28;;;;;;;3.55;1.20;;;;;;;;;;5009986;28;20029;-74
2023/03/25 09:12:55;;;;;;;3.58;0.90;;;;;;;;;;5010129;28;20026;-73
2023/03/25 09:15:21;;;;;;;3.10;1.20;;;;;;;;;;5010248;28;20083;-74
2023/03/25 09:17:47;;;;;;;2.75;1.38;;;;;;;;;;5009808;28;20078;-75
2023/03/25 09:20:13;;;;;;;1.00;0.60;;;;;;;;;;5009747;28;20037;-73
2023/03/25 09:22:39;;;;;;;1.55;0.60;;;;;;;;;;5009939;28;20262;-74
2023/03/25 09:25:06;;;;;;;2.05;0.98;;;;;;;;;;5009834;28;20030;-75
2023/03/25 09:27:33;;;;;;;2.00;0.88;;;;;;;;;;5009002;28;20045;-75
2023/03/25 09:29:59;;;;;;;2.65;0.80;;;;;;;;;;5009604;28;20018;-74
2023/03/25 09:32:25;;;;;;;2.00;1.13;;;;;;;;;;4991676;28;20403;-74
2023/03/25 09:34:51;;;;;;;4.68;1.08;;;;;;;;;;5009134;28;20026;-74
2023/03/25 09:37:17;;;;;;;4.53;1.02;;;;;;;;;;5008787;28;20446;-73
2023/03/25 09:39:43;;;;;;;2.20;0.70;;;;;;;;;;5009332;28;20032;-75
2023/03/25 09:42:26;;;;;;;2.22;1.80;;;;;;;;;;5009573;28;20416;-75
2023/03/25 09:44:57;;;;;;;1.67;1.10;;;;;;;;;;4991934;28;20395;-75
2023/03/25 09:47:24;;;;;;;3.78;2.15;;;;;;;;;;5008438;28;20018;-74
2023/03/25 09:49:53;;;;;;;1.23;0.55;;;;;;;;;;5009647;28;20026;-74
2023/03/25 09:52:24;;;;;;;3.90;1.88;;;;;;;;;;5009347;28;20021;-71
2023/03/25 09:54:52;;;;;;;2.10;1.55;;;;;;;;;;5009280;28;20030;-74
2023/03/25 09:57:20;;;;;;;3.05;1.52;;;;;;;;;;5008328;28;20436;-74
2023/03/25 09:59:51;;;;;;;3.10;1.00;;;;;;;;;;5008942;28;20407;-76
2023/03/25 10:02:17;;;;;;;1.77;1.42;;;;;;;;;;5009016;28;20109;-75
2023/03/25 10:04:43;;;;;;;1.85;1.10;;;;;;;;;;5009913;28;20033;-74
2023/03/25 10:07:21;;;;;;;2.42;1.10;;;;;;;;;;5007867;28;20018;-75
2023/03/25 10:09:53;;;;;;;2.90;0.90;;;;;;;;;;4991563;28;20022;-75
2023/03/25 10:12:19;;;;;;;2.55;1.20;;;;;;;;;;5008575;28;20022;-73
2023/03/25 10:15:00;;;;;;;2.65;1.75;;;;;;;;;;5008895;28;20022;-74
2023/03/25 10:17:32;;;;;;;5.78;1.27;;;;;;;;;;5008314;28;20407;-78
2023/03/25 10:20:17;;;;;;;1.70;0.98;;;;;;;;;;4991320;28;20086;-72
2023/03/25 10:22:45;;;;;;;3.58;0.75;;;;;;;;;;5008446;28;20052;-74
2023/03/25 10:25:20;;;;;;;2.72;1.35;;;;;;;;;;5008937;28;20052;-74
2023/03/25 10:27:48;;;;;;;1.73;1.00;;;;;;;;;;5007757;28;20182;-74
2023/03/25 10:30:34;;;;;;;1.92;0.80;;;;;;;;;;5008337;28;20057;-72
2023/03/25 10:33:03;;;;;;;2.35;0.98;;;;;;;;;;5008009;28;20026;-73
2023/03/25 10:35:29;;;;;;;1.98;0.77;;;;;;;;;;5008518;28;20104;-75
2023/03/25 10:37:58;;;;;;;3.58;0.80;;;;;;;;;;5007691;28;20022;-77
2023/03/25 10:40:26;;;;;;;2.15;0.88;;;;;;;;;;4990943;28;20133;-74
2023/03/25 10:43:03;;;;;;;1.55;0.77;;;;;;;;;;5008512;28;20026;-74
2023/03/25 10:45:30;;;;;;;2.10;0.85;;;;;;;;;;4990836;28;20375;-76
2023/03/25 10:48:02;;;;;;;1.70;0.98;;;;;;;;;;5006865;28;20038;-74
2023/03/25 10:50:28;;;;;;;0.50;0.47;;;;;;;;;;5012538;28;20058;-74
2023/03/25 10:52:56;;;;;;;1.10;0.45;;;;;;;;;;5019501;28;20034;-75
2023/03/25 10:55:26;;;;;;;1.95;0.43;;;;;;;;;;5019753;28;20055;-77
2023/03/25 10:57:54;;;;;;;0.93;0.55;;;;;;;;;;5020067;28;20075;-77
2023/03/25 11:00:29;;;;;;;1.10;0.40;;;;;;;;;;5019824;28;20026;-77
2023/03/25 11:02:57;;;;;;;2.83;0.70;;;;;;;;;;5019555;28;20030;-73
2023/03/25 11:05:26;;;;;;;2.33;0.70;;;;;;;;;;5013965;28;20080;-73
2023/03/25 11:07:54;;;;;;;2.80;0.60;;;;;;;;;;5007266;28;20071;-76
2023/03/25 11:10:28;;;;;;;2.08;0.40;;;;;;;;;;5008219;28;20041;-75
2023/03/25 11:12:57;;;;;;;0.93;0.60;;;;;;;;;;5007818;28;20476;-72
2023/03/25 11:15:29;;;;;;;1.55;0.68;;;;;;;;;;5007920;28;20497;-75
2023/03/25 11:17:59;;;;;;;2.53;1.02;;;;;;;;;;4989655;28;20121;-73
2023/03/25 11:20:28;;;;;;;2.73;0.80;;;;;;;;;;5010867;28;20030;-75
2023/03/25 11:22:54;;;;;;;1.73;0.50;;;;;;;;;;5010976;28;20050;-72
2023/03/25 11:25:29;;;;;;;1.00;0.35;;;;;;;;;;5009347;28;20030;-75
2023/03/25 11:27:59;;;;;;;0.77;0.50;;;;;;;;;;5008784;28;20022;-75
2023/03/25 11:30:26;;;;;;;1.60;0.35;;;;;;;;;;5009356;28;20064;-74
2023/03/25 11:33:02;;;;;;;0.98;0.55;;;;;;;;;;5010450;28;20029;-73
2023/03/25 11:35:30;;;;;;;2.05;0.82;;;;;;;;;;5009079;28;20551;-73
2023/03/25 11:38:00;;;;;;;1.67;0.80;;;;;;;;;;5010118;28;20090;-74
2023/03/25 11:40:27;;;;;;;2.25;0.70;;;;;;;;;;5010958;28;20395;-75
2023/03/25 11:43:00;;;;;;;2.70;0.95;;;;;;;;;;5007963;28;20029;-74
2023/03/25 11:45:31;;;;;;;3.08;0.63;;;;;;;;;;4992622;28;20518;-76
2023/03/25 11:47:58;;;;;;;1.33;0.50;;;;;;;;;;4989370;28;20494;-74
2023/03/25 11:50:25;;;;;;;2.97;0.60;;;;;;;;;;5007574;28;20030;-74
2023/03/25 11:52:53;;;;;;;0.70;0.40;;;;;;;;;;5007963;28;20014;-76
2023/03/25 11:55:19;;;;;;;2.47;0.45;;;;;;;;;;5008385;28;20433;-76
2023/03/25 11:57:47;;;;;;;1.02;0.25;;;;;;;;;;5006927;28;20059;-75
2023/03/25 12:00:26;;;;;;;0.47;0.20;;;;;;;;;;4996178;28;20079;-75
2023/03/25 12:02:58;;;;;;;2.55;0.65;;;;;;;;;;4995171;28;20126;-75
2023/03/25 12:05:25;;;;;;;1.40;0.50;;;;;;;;;;5007504;28;20091;-77
2023/03/25 12:07:59;;;;;;;2.33;0.60;;;;;;;;;;4993882;28;20023;-76
2023/03/25 12:10:48;;;;;;;1.45;0.50;;;;;;;;;;5011888;28;20029;-74
2023/03/25 12:13:15;;;;;;;1.02;0.60;;;;;;;;;;5015492;28;20104;-75
2023/03/25 12:15:43;;;;;;;2.65;0.80;;;;;;;;;;5010546;28;20022;-75
2023/03/25 12:18:09;;;;;;;0.60;0.40;;;;;;;;;;5009851;28;20115;-73
2023/03/25 12:20:38;;;;;;;1.02;0.50;;;;;;;;;;5009602;28;20498;-74
2023/03/25 12:23:23;;;;;;;0.68;0.20;;;;;;;;;;5009161;28;20022;-75
2023/03/25 12:26:09;;;;;;;1.60;0.60;;;;;;;;;;5008584;28;20044;-74
2023/03/25 12:28:54;;;;;;;0.60;0.40;;;;;;;;;;5008262;28;20026;-74
2023/03/25 12:31:38;;;;;;;1.42;0.50;;;;;;;;;;5007754;28;20038;-74
2023/03/25 12:34:07;;;;;;;0.65;0.45;;;;;;;;;;4991242;28;20026;-73
2023/03/25 12:36:41;;;;;;;2.45;0.52;;;;;;;;;;5010141;28;20036;-75
2023/03/25 12:39:25;;;;;;;1.15;0.40;;;;;;;;;;5012632;28;20101;-74
2023/03/25 12:41:57;;;;;;;1.27;0.40;;;;;;;;;;5026648;28;20051;-76
2023/03/25 12:44:34;;;;;;;0.80;0.30;;;;;;;;;;5026124;28;20063;-76
2023/03/25 12:47:06;;;;;;;1.95;0.52;;;;;;;;;;5025851;28;20030;-72
2023/03/25 12:49:47;;;;;;;2.17;0.63;;;;;;;;;;5012527;28;20026;-76
2023/03/25 12:52:32;;;;;;;3.10;0.85;;;;;;;;;;5010047;28;20022;-73
2023/03/25 12:55:01;;;;;;;1.67;0.70;;;;;;;;;;5010237;28;20030;-75
2023/03/25 12:57:33;;;;;;;2.25;0.40;;;;;;;;;;5009106;28;20368;-75
2023/03/25 13:00:08;;;;;;;1.20;0.40;;;;;;;;;;4992118;28;20048;-76
2023/03/25 13:03:11;;;;;;;0.68;0.22;;;;;;;;;;5009910;28;20022;-75
2023/03/25 13:05:47;;;;;;;2.15;0.57;;;;;;;;;;5052402;28;20517;-74
2023/03/25 13:08:19;;;;;;;2.25;0.40;;;;;;;;;;4999073;28;20022;-76
2023/03/25 13:10:47;;;;;;;1.70;0.30;;;;;;;;;;5009893;28;20539;-74
2023/03/25 13:13:15;;;;;;;2.00;0.65;;;;;;;;;;5009727;28;20026;-74
2023/03/25 13:15:47;;;;;;;0.95;0.47;;;;;;;;;;5009322;28;20022;-75
2023/03/25 13:18:17;;;;;;;1.42;0.52;;;;;;;;;;5008703;28;20049;-74
2023/03/25 13:20:55;;;;;;;3.17;0.70;;;;;;;;;;5009651;28;20437;-73
2023/03/25 13:23:23;;;;;;;1.20;0.55;;;;;;;;;;5009468;28;20022;-72
2023/03/25 13:25:49;;;;;;;0.43;0.30;;;;;;;;;;5009319;28;20406;-72
2023/03/25 13:28:17;;;;;;;1.52;0.50;;;;;;;;;;5008388;28;20108;-75
2023/03/25 13:30:45;;;;;;;2.58;0.50;;;;;;;;;;5008843;28;20022;-72
2023/03/25 13:33:14;;;;;;;3.05;0.80;;;;;;;;;;5008952;28;20053;-73
2023/03/25 13:35:43;;;;;;;1.85;0.60;;;;;;;;;;5009150;28;20047;-74
2023/03/25 13:38:30;;;;;;;2.20;0.30;;;;;;;;;;5008049;28;20087;-72
2023/03/25 13:41:14;;;;;;;2.58;0.70;;;;;;;;;;5000967;28;20033;-73
2023/03/25 13:43:45;;;;;;;1.63;0.50;;;;;;;;;;5008770;28;20025;-74
2023/03/25 13:46:13;;;;;;;1.90;0.60;;;;;;;;;;5009136;28;20499;-74
2023/03/25 13:48:48;;;;;;;1.08;0.47;;;;;;;;;;5008090;28;20022;-74
2023/03/25 13:51:14;;;;;;;5.18;1.08;;;;;;;;;;5008662;28;20030;-74
2023/03/25 13:53:40;;;;;;;1.08;0.45;;;;;;;;;;5008327;28;20030;-74
2023/03/25 13:56:07;;;;;;;1.98;0.50;;;;;;;;;;5009089;28;20057;-72
2023/03/25 13:58:56;;;;;;;1.98;0.80;;;;;;;;;;5007796;28;20018;-75
2023/03/25 14:01:25;;;;;;;1.17;0.52;;;;;;;;;;4998693;28;20033;-74
2023/03/25 14:04:10;;;;;;;1.90;0.70;;;;;;;;;;5008436;28;20033;-75
2023/03/25 14:06:45;;;;;;;2.95;1.13;;;;;;;;;;5008654;28;20026;-76
2023/03/25 14:09:14;;;;;;;3.72;0.73;;;;;;;;;;5007665;28;20455;-74
2023/03/25 14:12:08;;;;;;;3.25;0.88;;;;;;;;;;5009374;28;20427;-74
2023/03/25 14:14:35;;;;;;;2.80;1.00;;;;;;;;;;5009488;28;20042;-73
2023/03/25 14:17:04;;;;;;;4.03;1.02;;;;;;;;;;5008258;28;20511;-72
2023/03/25 14:19:38;;;;;;;2.85;0.90;;;;;;;;;;5008367;28;20026;-74
2023/03/25 14:22:17;;;;;;;3.33;1.20;;;;;;;;;;5008776;28;20026;-74
2023/03/25 14:24:43;;;;;;;4.07;1.20;;;;;;;;;;5008572;28;20403;-75
2023/03/25 14:27:16;;;;;;;1.92;0.85;;;;;;;;;;5008254;28;20092;-76
2023/03/25 14:30:01;;;;;;;3.53;1.23;;;;;;;;;;5008848;28;20018;-76
2023/03/25 14:32:33;;;;;;;5.30;0.95;;;;;;;;;;5008819;28;20029;-74
2023/03/25 14:35:19;;;;;;;6.13;1.33;;;;;;;;;;5008923;28;20030;-74
2023/03/25 14:37:47;;;;;;;3.22;1.10;;;;;;;;;;5014399;28;20050;-76
2023/03/25 14:40:50;;;;;;;3.30;1.00;;;;;;;;;;5008338;28;20026;-74
2023/03/25 14:43:19;;;;;;;6.45;1.30;;;;;;;;;;5048308;28;20031;-77
2023/03/25 14:46:04;;;;;;;10.10;1.02;;;;;;;;;;5000943;28;20033;-75
2023/03/25 14:48:51;;;;;;;3.15;0.60;;;;;;;;;;4990478;28;20026;-75
2023/03/25 14:51:18;;;;;;;1.95;0.70;;;;;;;;;;5009693;28;20018;-75
2023/03/25 14:54:03;;;;;;;2.22;1.00;;;;;;;;;;5010872;28;20086;-75
2023/03/25 14:56:37;;;;;;;2.72;0.63;;;;;;;;;;5013075;28;20137;-74
2023/03/25 14:59:14;;;;;;;2.78;0.80;;;;;;;;;;5011258;28;20022;-74
2023/03/25 15:01:42;;;;;;;1.83;0.40;;;;;;;;;;5011894;28;20130;-74